createdAt,value
2018-02-09T00:00:55.990Z,1018.05
2018-02-09T00:01:56.104Z,1018.04
2018-02-09T00:02:56.081Z,1018.09
2018-02-09T00:03:56.185Z,1018.01
2018-02-09T00:04:56.614Z,1018.1
2018-02-09T00:05:56.630Z,1018.08
2018-02-09T00:06:56.880Z,1018.04
2018-02-09T00:07:57.046Z,1018.06
2018-02-09T00:08:57.094Z,1018.04
2018-02-09T00:09:57.126Z,1018.07
2018-02-09T00:10:57.115Z,1018.05
2018-02-09T00:11:57.130Z,1018.02
2018-02-09T00:12:57.180Z,1018.07
2018-02-09T00:13:57.294Z,1018.02
2018-02-09T00:14:57.226Z,1018.04
2018-02-09T00:15:57.262Z,1018.05
2018-02-09T00:16:57.538Z,1018.03
2018-02-09T00:17:57.562Z,1018.06
2018-02-09T00:18:57.576Z,1018.05
2018-02-09T00:19:57.588Z,1018.08
2018-02-09T00:20:57.607Z,1018.08
2018-02-09T00:21:57.612Z,1018.06
2018-02-09T00:22:57.756Z,1018.13
2018-02-09T00:23:57.771Z,1018.14
2018-02-09T00:24:57.913Z,1018.14
2018-02-09T00:25:57.928Z,1018.11
2018-02-09T00:26:58.392Z,1018.14
2018-02-09T00:27:58.389Z,1018.19
2018-02-09T00:28:58.429Z,1018.13
2018-02-09T00:29:58.501Z,1018.11
2018-02-09T00:30:58.689Z,1018.14
2018-02-09T00:31:58.605Z,1018.13
2018-02-09T00:32:58.917Z,1018.1
2018-02-09T00:33:58.915Z,1018.07
2018-02-09T00:34:59.032Z,1018.06
2018-02-09T00:35:59.291Z,1018.06
2018-02-09T00:36:59.341Z,1018.08
2018-02-09T00:37:59.325Z,1018.07
2018-02-09T00:38:59.376Z,1018.12
2018-02-09T00:39:59.371Z,1018.05
2018-02-09T00:40:59.426Z,1018.08
2018-02-09T00:41:59.417Z,1018.1
2018-02-09T00:42:59.480Z,1018.11
2018-02-09T00:43:59.956Z,1018.13
2018-02-09T00:44:59.722Z,1018.13
2018-02-09T00:45:59.743Z,1018.14
2018-02-09T00:46:59.824Z,1018.14
2018-02-09T00:47:59.777Z,1018.11
2018-02-09T00:48:59.812Z,1018.14
2018-02-09T00:49:59.859Z,1018.16
2018-02-09T00:51:00.123Z,1018.1
2018-02-09T00:52:00.131Z,1018.14
2018-02-09T00:53:00.133Z,1018.13
2018-02-09T00:54:00.290Z,1018.11
2018-02-09T00:55:00.309Z,1018.11
2018-02-09T00:56:00.643Z,1018.04
2018-02-09T00:57:00.555Z,1018.07
2018-02-09T00:58:00.540Z,1018.01
2018-02-09T00:59:00.596Z,1018.05
2018-02-09T01:00:00.624Z,1018.02
2018-02-09T01:01:00.976Z,1018.05
2018-02-09T01:02:00.944Z,1018.03
2018-02-09T01:03:00.975Z,1018.04
2018-02-09T01:04:01.406Z,1018.04
2018-02-09T01:05:01.436Z,1018.08
2018-02-09T01:06:01.558Z,1018.09
2018-02-09T01:07:01.463Z,1018.05
2018-02-09T01:08:01.608Z,1018.06
2018-02-09T01:09:01.990Z,1018.08
2018-02-09T01:10:02.024Z,1017.96
2018-02-09T01:11:02.084Z,1018.03
2018-02-09T01:12:02.453Z,1018.05
2018-02-09T01:13:02.468Z,1018.01
2018-02-09T01:14:02.480Z,1018.02
2018-02-09T01:15:02.906Z,1018.02
2018-02-09T01:16:02.929Z,1017.99
2018-02-09T01:17:02.940Z,1018.02
2018-02-09T01:18:03.091Z,1018.02
2018-02-09T01:19:03.120Z,1018.01
2018-02-09T01:20:03.114Z,1018
2018-02-09T01:21:03.121Z,1018.03
2018-02-09T01:22:03.272Z,1018
2018-02-09T01:23:03.428Z,1017.99
2018-02-09T01:24:03.423Z,1018.02
2018-02-09T01:25:03.458Z,1017.96
2018-02-09T01:26:03.606Z,1017.95
2018-02-09T01:27:03.786Z,1017.96
2018-02-09T01:28:03.794Z,1017.95
2018-02-09T01:29:04.285Z,1017.91
2018-02-09T01:30:04.274Z,1017.92
2018-02-09T01:31:04.654Z,1017.92
2018-02-09T01:32:04.681Z,1017.9
2018-02-09T01:33:05.070Z,1017.88
2018-02-09T01:34:05.507Z,1017.89
2018-02-09T01:35:05.676Z,1017.9
2018-02-09T01:36:05.698Z,1017.89
2018-02-09T01:37:05.723Z,1017.84
2018-02-09T01:38:05.884Z,1017.87
2018-02-09T01:39:06.191Z,1017.83
2018-02-09T01:40:06.306Z,1017.82
2018-02-09T01:41:06.566Z,1017.82
2018-02-09T01:42:06.738Z,1017.8
2018-02-09T01:43:06.732Z,1017.83
2018-02-09T01:44:07.108Z,1017.78
2018-02-09T01:45:07.287Z,1017.78
2018-02-09T01:46:07.335Z,1017.83
2018-02-09T01:47:07.510Z,1017.79
2018-02-09T01:48:07.563Z,1017.79
2018-02-09T01:49:07.978Z,1017.75
2018-02-09T01:50:07.981Z,1017.79
2018-02-09T01:51:07.976Z,1017.76
2018-02-09T01:52:08.008Z,1017.81
2018-02-09T01:53:08.411Z,1017.78
2018-02-09T01:54:08.424Z,1017.71
2018-02-09T01:55:08.784Z,1017.73
2018-02-09T01:56:08.882Z,1017.75
2018-02-09T01:57:09.332Z,1017.7
2018-02-09T01:58:09.319Z,1017.66
2018-02-09T01:59:09.349Z,1017.69
2018-02-09T02:00:09.720Z,1017.71
2018-02-09T02:01:10.080Z,1017.67
2018-02-09T02:02:10.484Z,1017.68
2018-02-09T02:03:10.513Z,1017.66
2018-02-09T02:04:10.654Z,1017.65
2018-02-09T02:05:10.777Z,1017.58
2018-02-09T02:06:10.790Z,1017.62
2018-02-09T02:07:10.827Z,1017.63
2018-02-09T02:08:10.822Z,1017.6
2018-02-09T02:09:11.214Z,1017.66
2018-02-09T02:10:11.229Z,1017.57
2018-02-09T02:11:11.385Z,1017.57
2018-02-09T02:12:11.402Z,1017.58
2018-02-09T02:13:11.521Z,1017.58
2018-02-09T02:14:11.944Z,1017.54
2018-02-09T02:15:12.404Z,1017.56
2018-02-09T02:16:12.784Z,1017.52
2018-02-09T02:17:13.154Z,1017.52
2018-02-09T02:18:13.170Z,1017.53
2018-02-09T02:19:13.179Z,1017.51
2018-02-09T02:20:13.182Z,1017.48
2018-02-09T02:21:13.283Z,1017.47
2018-02-09T02:22:13.560Z,1017.45
2018-02-09T02:23:13.513Z,1017.45
2018-02-09T02:24:13.695Z,1017.41
2018-02-09T02:25:14.078Z,1017.39
2018-02-09T02:26:14.099Z,1017.36
2018-02-09T02:27:14.451Z,1017.35
2018-02-09T02:28:14.587Z,1017.38
2018-02-09T02:29:14.947Z,1017.39
2018-02-09T02:30:14.652Z,1017.38
2018-02-09T02:31:14.776Z,1017.36
2018-02-09T02:32:14.889Z,1017.37
2018-02-09T02:33:15.280Z,1017.4
2018-02-09T02:34:15.470Z,1017.33
2018-02-09T02:35:15.502Z,1017.31
2018-02-09T02:36:15.496Z,1017.32
2018-02-09T02:37:15.892Z,1017.34
2018-02-09T02:38:15.909Z,1017.34
2018-02-09T02:39:16.045Z,1017.34
2018-02-09T02:40:16.217Z,1017.32
2018-02-09T02:41:16.236Z,1017.28
2018-02-09T02:42:16.249Z,1017.29
2018-02-09T02:43:16.286Z,1017.28
2018-02-09T02:44:16.657Z,1017.28
2018-02-09T02:45:17.086Z,1017.29
2018-02-09T02:46:17.386Z,1017.25
2018-02-09T02:47:17.363Z,1017.26
2018-02-09T02:48:17.742Z,1017.27
2018-02-09T02:49:17.404Z,1017.22
2018-02-09T02:50:17.418Z,1017.24
2018-02-09T02:51:17.432Z,1017.24
2018-02-09T02:52:17.644Z,1017.25
2018-02-09T02:53:17.648Z,1017.27
2018-02-09T02:54:17.679Z,1017.26
2018-02-09T02:55:17.690Z,1017.28
2018-02-09T02:56:17.698Z,1017.34
2018-02-09T02:57:18.141Z,1017.31
2018-02-09T02:58:18.166Z,1017.3
2018-02-09T02:59:18.180Z,1017.3
2018-02-09T03:00:18.501Z,1017.3
2018-02-09T03:01:18.524Z,1017.35
2018-02-09T03:02:18.540Z,1017.3
2018-02-09T03:03:18.517Z,1017.28
2018-02-09T03:04:18.535Z,1017.26
2018-02-09T03:05:18.690Z,1017.23
2018-02-09T03:06:18.977Z,1017.22
2018-02-09T03:07:19.001Z,1017.23
2018-02-09T03:08:19.139Z,1017.24
2018-02-09T03:09:19.432Z,1017.23
2018-02-09T03:10:19.455Z,1017.24
2018-02-09T03:11:19.589Z,1017.23
2018-02-09T03:12:19.608Z,1017.17
2018-02-09T03:13:19.619Z,1017.12
2018-02-09T03:14:19.642Z,1017.13
2018-02-09T03:15:20.142Z,1017.08
2018-02-09T03:16:20.136Z,1017.11
2018-02-09T03:17:20.156Z,1017.11
2018-02-09T03:18:20.194Z,1017.07
2018-02-09T03:19:20.192Z,1017.09
2018-02-09T03:20:20.204Z,1017.05
2018-02-09T03:21:20.244Z,1017.08
2018-02-09T03:22:20.242Z,1017.1
2018-02-09T03:23:20.259Z,1017.04
2018-02-09T03:24:20.583Z,1017.04
2018-02-09T03:25:20.615Z,1017.11
2018-02-09T03:26:20.641Z,1017.08
2018-02-09T03:27:20.799Z,1017.02
2018-02-09T03:28:21.338Z,1017.04
2018-02-09T03:29:21.290Z,1017.06
2018-02-09T03:30:21.323Z,1017.05
2018-02-09T03:31:21.347Z,1017.06
2018-02-09T03:32:21.341Z,1017.01
2018-02-09T03:33:21.536Z,1017.01
2018-02-09T03:34:21.995Z,1017.02
2018-02-09T03:35:21.982Z,1017.01
2018-02-09T03:36:22.003Z,1017.03
2018-02-09T03:37:22.407Z,1017.04
2018-02-09T03:38:22.537Z,1017
2018-02-09T03:39:22.565Z,1017.06
2018-02-09T03:40:22.887Z,1017.02
2018-02-09T03:41:22.904Z,1016.97
2018-02-09T03:42:22.913Z,1016.98
2018-02-09T03:43:23.090Z,1017.03
2018-02-09T03:44:23.085Z,1017.03
2018-02-09T03:45:23.193Z,1017
2018-02-09T03:46:23.572Z,1017.04
2018-02-09T03:47:23.605Z,1016.99
2018-02-09T03:48:23.612Z,1017.04
2018-02-09T03:49:23.999Z,1016.97
2018-02-09T03:50:24.142Z,1016.92
2018-02-09T03:51:24.139Z,1016.97
2018-02-09T03:52:24.156Z,1016.93
2018-02-09T03:53:24.257Z,1016.89
2018-02-09T03:54:24.258Z,1016.91
2018-02-09T03:55:24.269Z,1016.93
2018-02-09T03:56:24.295Z,1016.93
2018-02-09T03:57:24.399Z,1016.95
2018-02-09T03:58:24.416Z,1016.96
2018-02-09T03:59:24.438Z,1017.02
2018-02-09T04:00:24.496Z,1016.99
2018-02-09T04:01:24.524Z,1016.98
2018-02-09T04:02:24.493Z,1016.96
2018-02-09T04:03:24.651Z,1016.97
2018-02-09T04:04:24.839Z,1016.98
2018-02-09T04:05:24.859Z,1016.93
2018-02-09T04:06:24.881Z,1016.94
2018-02-09T04:07:24.908Z,1016.91
2018-02-09T04:08:25.167Z,1016.92
2018-02-09T04:09:25.539Z,1016.92
2018-02-09T04:10:25.562Z,1016.91
2018-02-09T04:11:25.575Z,1016.87
2018-02-09T04:12:25.960Z,1016.88
2018-02-09T04:13:25.973Z,1016.9
2018-02-09T04:14:25.992Z,1016.82
2018-02-09T04:15:26.009Z,1016.87
2018-02-09T04:16:26.256Z,1016.81
2018-02-09T04:17:26.249Z,1016.88
2018-02-09T04:18:26.250Z,1016.82
2018-02-09T04:19:26.686Z,1016.85
2018-02-09T04:20:26.807Z,1016.81
2018-02-09T04:21:26.836Z,1016.82
2018-02-09T04:22:26.816Z,1016.77
2018-02-09T04:23:26.841Z,1016.77
2018-02-09T04:24:26.845Z,1016.81
2018-02-09T04:25:26.866Z,1016.75
2018-02-09T04:26:26.880Z,1016.73
2018-02-09T04:27:27.262Z,1016.76
2018-02-09T04:28:27.275Z,1016.77
2018-02-09T04:29:27.294Z,1016.75
2018-02-09T04:30:27.311Z,1016.72
2018-02-09T04:31:27.327Z,1016.73
2018-02-09T04:32:27.446Z,1016.71
2018-02-09T04:33:27.475Z,1016.72
2018-02-09T04:34:27.484Z,1016.73
2018-02-09T04:35:27.615Z,1016.73
2018-02-09T04:36:28.797Z,1016.77
2018-02-09T04:37:28.453Z,1016.76
2018-02-09T04:38:28.742Z,1016.79
2018-02-09T04:39:28.746Z,1016.78
2018-02-09T04:40:28.850Z,1016.81
2018-02-09T04:41:29.552Z,1016.72
2018-02-09T04:42:29.440Z,1016.8
2018-02-09T04:43:29.457Z,1016.77
2018-02-09T04:44:29.485Z,1016.74
2018-02-09T04:45:29.491Z,1016.78
2018-02-09T04:46:29.509Z,1016.76
2018-02-09T04:47:29.540Z,1016.75
2018-02-09T04:48:29.542Z,1016.77
2018-02-09T04:49:29.554Z,1016.78
2018-02-09T04:50:29.569Z,1016.72
2018-02-09T04:51:29.610Z,1016.78
2018-02-09T04:52:29.630Z,1016.75
2018-02-09T04:53:29.640Z,1016.7
2018-02-09T04:54:29.794Z,1016.76
2018-02-09T04:55:29.821Z,1016.77
2018-02-09T04:56:29.956Z,1016.74
2018-02-09T04:57:29.974Z,1016.71
2018-02-09T04:58:29.987Z,1016.73
2018-02-09T04:59:30.130Z,1016.77
2018-02-09T05:00:30.571Z,1016.8
2018-02-09T05:01:30.585Z,1016.81
2018-02-09T05:02:30.759Z,1016.73
2018-02-09T05:03:30.997Z,1016.71
2018-02-09T05:04:31.133Z,1016.71
2018-02-09T05:05:31.137Z,1016.68
2018-02-09T05:06:31.184Z,1016.69
2018-02-09T05:07:31.207Z,1016.64
2018-02-09T05:08:31.252Z,1016.65
2018-02-09T05:09:31.555Z,1016.68
2018-02-09T05:10:31.543Z,1016.67
2018-02-09T05:11:31.550Z,1016.66
2018-02-09T05:12:31.579Z,1016.65
2018-02-09T05:13:31.582Z,1016.64
2018-02-09T05:14:31.796Z,1016.63
2018-02-09T05:15:31.835Z,1016.65
2018-02-09T05:16:32.259Z,1016.66
2018-02-09T05:17:32.327Z,1016.64
2018-02-09T05:18:32.258Z,1016.65
2018-02-09T05:19:32.287Z,1016.7
2018-02-09T05:20:32.316Z,1016.67
2018-02-09T05:21:32.523Z,1016.67
2018-02-09T05:22:32.958Z,1016.65
2018-02-09T05:23:32.953Z,1016.68
2018-02-09T05:24:33.075Z,1016.65
2018-02-09T05:25:33.479Z,1016.64
2018-02-09T05:26:33.546Z,1016.64
2018-02-09T05:27:33.693Z,1016.62
2018-02-09T05:28:33.851Z,1016.6
2018-02-09T05:29:33.870Z,1016.6
2018-02-09T05:30:34.159Z,1016.57
2018-02-09T05:31:34.237Z,1016.54
2018-02-09T05:32:34.254Z,1016.52
2018-02-09T05:33:34.402Z,1016.5
2018-02-09T05:34:34.428Z,1016.55
2018-02-09T05:35:34.737Z,1016.51
2018-02-09T05:36:34.752Z,1016.43
2018-02-09T05:37:34.857Z,1016.5
2018-02-09T05:38:35.143Z,1016.5
2018-02-09T05:39:35.559Z,1016.48
2018-02-09T05:40:35.631Z,1016.46
2018-02-09T05:41:35.649Z,1016.38
2018-02-09T05:42:36.043Z,1016.42
2018-02-09T05:43:36.089Z,1016.4
2018-02-09T05:44:36.111Z,1016.41
2018-02-09T05:45:36.136Z,1016.43
2018-02-09T05:46:36.135Z,1016.48
2018-02-09T05:47:36.147Z,1016.43
2018-02-09T05:48:36.542Z,1016.41
2018-02-09T05:49:36.684Z,1016.4
2018-02-09T05:50:36.591Z,1016.47
2018-02-09T05:51:37.028Z,1016.45
2018-02-09T05:52:36.992Z,1016.45
2018-02-09T05:53:37.416Z,1016.42
2018-02-09T05:54:37.413Z,1016.41
2018-02-09T05:55:37.550Z,1016.44
2018-02-09T05:56:37.838Z,1016.39
2018-02-09T05:57:37.899Z,1016.41
2018-02-09T05:58:37.959Z,1016.41
2018-02-09T05:59:37.942Z,1016.4
2018-02-09T06:00:37.956Z,1016.32
2018-02-09T06:01:38.102Z,1016.33
2018-02-09T06:02:38.105Z,1016.39
2018-02-09T06:03:38.113Z,1016.41
2018-02-09T06:04:38.162Z,1016.34
2018-02-09T06:05:38.668Z,1016.38
2018-02-09T06:06:38.712Z,1016.31
2018-02-09T06:07:38.701Z,1016.31
2018-02-09T06:08:38.915Z,1016.26
2018-02-09T06:09:39.282Z,1016.26
2018-02-09T06:10:39.250Z,1016.22
2018-02-09T06:11:39.341Z,1016.27
2018-02-09T06:12:39.340Z,1016.26
2018-02-09T06:13:39.278Z,1016.29
2018-02-09T06:14:39.340Z,1016.31
2018-02-09T06:15:39.328Z,1016.26
2018-02-09T06:16:39.466Z,1016.24
2018-02-09T06:17:39.481Z,1016.21
2018-02-09T06:18:39.918Z,1016.27
2018-02-09T06:19:39.813Z,1016.24
2018-02-09T06:20:39.844Z,1016.24
2018-02-09T06:21:39.850Z,1016.23
2018-02-09T06:22:39.857Z,1016.29
2018-02-09T06:23:39.889Z,1016.27
2018-02-09T06:24:40.099Z,1016.29
2018-02-09T06:25:40.131Z,1016.28
2018-02-09T06:26:40.186Z,1016.26
2018-02-09T06:27:40.479Z,1016.23
2018-02-09T06:28:40.196Z,1016.26
2018-02-09T06:29:40.212Z,1016.28
2018-02-09T06:30:40.215Z,1016.26
2018-02-09T06:31:40.246Z,1016.25
2018-02-09T06:32:40.499Z,1016.28
2018-02-09T06:33:40.747Z,1016.29
2018-02-09T06:34:40.772Z,1016.26
2018-02-09T06:35:40.792Z,1016.22
2018-02-09T06:36:40.798Z,1016.26
2018-02-09T06:37:41.019Z,1016.25
2018-02-09T06:38:41.412Z,1016.27
2018-02-09T06:39:41.083Z,1016.25
2018-02-09T06:40:41.098Z,1016.23
2018-02-09T06:41:41.116Z,1016.27
2018-02-09T06:42:41.130Z,1016.25
2018-02-09T06:43:41.286Z,1016.22
2018-02-09T06:44:41.299Z,1016.19
2018-02-09T06:45:41.344Z,1016.23
2018-02-09T06:46:41.322Z,1016.22
2018-02-09T06:47:41.384Z,1016.28
2018-02-09T06:48:41.383Z,1016.2
2018-02-09T06:49:41.421Z,1016.27
2018-02-09T06:50:41.991Z,1016.25
2018-02-09T06:51:41.825Z,1016.34
2018-02-09T06:52:42.114Z,1016.3
2018-02-09T06:53:42.333Z,1016.3
2018-02-09T06:54:42.163Z,1016.24
2018-02-09T06:55:42.571Z,1016.21
2018-02-09T06:56:42.593Z,1016.23
2018-02-09T06:57:42.713Z,1016.28
2018-02-09T06:58:42.869Z,1016.28
2018-02-09T06:59:43.247Z,1016.29
2018-02-09T07:00:43.608Z,1016.23
2018-02-09T07:01:43.964Z,1016.25
2018-02-09T07:02:44.394Z,1016.29
2018-02-09T07:03:44.146Z,1016.27
2018-02-09T07:04:44.502Z,1016.29
2018-02-09T07:05:44.629Z,1016.28
2018-02-09T07:06:44.701Z,1016.27
2018-02-09T07:07:44.676Z,1016.29
2018-02-09T07:08:44.835Z,1016.27
2018-02-09T07:09:45.218Z,1016.3
2018-02-09T07:10:45.447Z,1016.3
2018-02-09T07:11:45.585Z,1016.34
2018-02-09T07:12:45.609Z,1016.39
2018-02-09T07:13:45.835Z,1016.38
2018-02-09T07:14:45.980Z,1016.33
2018-02-09T07:15:46.320Z,1016.4
2018-02-09T07:16:46.455Z,1016.35
2018-02-09T07:17:46.748Z,1016.29
2018-02-09T07:18:46.875Z,1016.33
2018-02-09T07:19:46.894Z,1016.31
2018-02-09T07:20:47.270Z,1016.3
2018-02-09T07:21:47.674Z,1016.34
2018-02-09T07:22:48.258Z,1016.37
2018-02-09T07:23:48.173Z,1016.32
2018-02-09T07:24:48.271Z,1016.34
2018-02-09T07:25:48.363Z,1016.35
2018-02-09T07:26:48.219Z,1016.33
2018-02-09T07:27:48.293Z,1016.32
2018-02-09T07:28:49.390Z,1016.33
2018-02-09T07:29:49.254Z,1016.38
2018-02-09T07:30:49.195Z,1016.3
2018-02-09T07:31:48.982Z,1016.35
2018-02-09T07:32:49.127Z,1016.32
2018-02-09T07:33:49.446Z,1016.37
2018-02-09T07:34:49.142Z,1016.37
2018-02-09T07:35:49.183Z,1016.33
2018-02-09T07:36:49.180Z,1016.36
2018-02-09T07:37:49.636Z,1016.28
2018-02-09T07:38:49.615Z,1016.31
2018-02-09T07:39:49.624Z,1016.3
2018-02-09T07:40:49.635Z,1016.3
2018-02-09T07:41:49.666Z,1016.23
2018-02-09T07:42:50.115Z,1016.29
2018-02-09T07:43:50.424Z,1016.28
2018-02-09T07:44:50.842Z,1016.25
2018-02-09T07:45:50.994Z,1016.31
2018-02-09T07:46:51.188Z,1016.34
2018-02-09T07:47:51.544Z,1016.28
2018-02-09T07:48:51.583Z,1016.28
2018-02-09T07:49:51.885Z,1016.27
2018-02-09T07:50:51.916Z,1016.3
2018-02-09T07:51:51.988Z,1016.31
2018-02-09T07:52:51.963Z,1016.26
2018-02-09T07:53:52.045Z,1016.28
2018-02-09T07:54:52.339Z,1016.34
2018-02-09T07:55:52.459Z,1016.28
2018-02-09T07:56:52.500Z,1016.3
2018-02-09T07:57:52.498Z,1016.36
2018-02-09T07:58:52.515Z,1016.31
2018-02-09T07:59:52.642Z,1016.31
2018-02-09T08:00:52.829Z,1016.26
2018-02-09T08:01:52.983Z,1016.23
2018-02-09T08:02:53.362Z,1016.29
2018-02-09T08:03:53.387Z,1016.29
2018-02-09T08:04:53.809Z,1016.31
2018-02-09T08:05:53.827Z,1016.26
2018-02-09T08:06:54.011Z,1016.26
2018-02-09T08:07:53.995Z,1016.24
2018-02-09T08:08:54.801Z,1016.25
2018-02-09T08:09:54.727Z,1016.23
2018-02-09T08:10:54.875Z,1016.21
2018-02-09T08:11:54.751Z,1016.17
2018-02-09T08:12:54.770Z,1016.19
2018-02-09T08:13:55.191Z,1016.18
2018-02-09T08:14:55.531Z,1016.14
2018-02-09T08:15:55.629Z,1016.18
2018-02-09T08:16:55.655Z,1016.18
2018-02-09T08:17:56.267Z,1016.14
2018-02-09T08:18:56.247Z,1016.26
2018-02-09T08:19:56.236Z,1016.22
2018-02-09T08:20:56.265Z,1016.2
2018-02-09T08:21:56.269Z,1016.13
2018-02-09T08:22:56.299Z,1016.18
2018-02-09T08:23:56.335Z,1016.16
2018-02-09T08:24:56.358Z,1016.3
2018-02-09T08:25:56.830Z,1016.17
2018-02-09T08:26:56.481Z,1016.16
2018-02-09T08:27:56.462Z,1016.15
2018-02-09T08:28:56.448Z,1016.16
2018-02-09T08:29:56.435Z,1016.13
2018-02-09T08:30:56.461Z,1016.13
2018-02-09T08:31:56.488Z,1016.13
2018-02-09T08:32:56.703Z,1016.14
2018-02-09T08:33:56.731Z,1016.18
2018-02-09T08:34:56.703Z,1016.15
2018-02-09T08:35:56.751Z,1016.15
2018-02-09T08:36:56.941Z,1016.16
2018-02-09T08:37:56.955Z,1016.13
2018-02-09T08:38:57.131Z,1016.2
2018-02-09T08:39:57.139Z,1016.09
2018-02-09T08:40:57.160Z,1016.11
2018-02-09T08:41:57.190Z,1016.09
2018-02-09T08:42:57.561Z,1016.09
2018-02-09T08:43:57.601Z,1016.08
2018-02-09T08:44:57.838Z,1016.12
2018-02-09T08:45:57.850Z,1016.16
2018-02-09T08:46:57.841Z,1016.15
2018-02-09T08:47:57.945Z,1016.15
2018-02-09T08:48:58.391Z,1016.17
2018-02-09T08:49:58.463Z,1016.12
2018-02-09T08:50:58.422Z,1016.09
2018-02-09T08:51:58.448Z,1016.06
2018-02-09T08:52:58.792Z,1016.08
2018-02-09T08:53:58.958Z,1016.01
2018-02-09T08:54:58.925Z,1016.05
2018-02-09T08:55:59.285Z,1016.02
2018-02-09T08:56:59.494Z,1016
2018-02-09T08:57:59.514Z,1015.97
2018-02-09T08:58:59.550Z,1015.99
2018-02-09T08:59:59.546Z,1015.97
2018-02-09T09:00:59.637Z,1015.98
2018-02-09T09:01:59.965Z,1015.95
2018-02-09T09:03:00.305Z,1015.94
2018-02-09T09:04:00.295Z,1015.95
2018-02-09T09:05:00.336Z,1015.9
2018-02-09T09:06:00.495Z,1015.94
2018-02-09T09:07:00.845Z,1016.01
2018-02-09T09:08:01.268Z,1015.98
2018-02-09T09:09:01.298Z,1016.02
2018-02-09T09:10:01.472Z,1016
2018-02-09T09:11:01.786Z,1016.08
2018-02-09T09:12:01.974Z,1015.98
2018-02-09T09:13:02.911Z,1015.94
2018-02-09T09:14:02.936Z,1015.95
2018-02-09T09:15:03.083Z,1015.95
2018-02-09T09:16:02.972Z,1015.94
2018-02-09T09:17:02.741Z,1015.89
2018-02-09T09:18:02.714Z,1015.93
2018-02-09T09:19:02.764Z,1015.91
2018-02-09T09:20:03.262Z,1015.96
2018-02-09T09:21:03.303Z,1015.93
2018-02-09T09:22:03.559Z,1015.95
2018-02-09T09:23:03.270Z,1015.9
2018-02-09T09:24:03.318Z,1015.85
2018-02-09T09:25:03.421Z,1015.94
2018-02-09T09:26:03.343Z,1015.86
2018-02-09T09:27:03.477Z,1015.94
2018-02-09T09:28:03.500Z,1015.92
2018-02-09T09:29:03.518Z,1015.83
2018-02-09T09:30:03.546Z,1015.79
2018-02-09T09:31:03.586Z,1015.86
2018-02-09T09:32:03.687Z,1015.78
2018-02-09T09:33:04.438Z,1015.82
2018-02-09T09:34:04.219Z,1015.81
2018-02-09T09:35:04.194Z,1015.76
2018-02-09T09:36:04.266Z,1015.78
2018-02-09T09:37:04.488Z,1015.81
2018-02-09T09:38:04.515Z,1015.75
2018-02-09T09:39:04.523Z,1015.77
2018-02-09T09:40:04.608Z,1015.77
2018-02-09T09:41:04.986Z,1015.78
2018-02-09T09:42:05.011Z,1015.7
2018-02-09T09:43:05.228Z,1015.73
2018-02-09T09:44:05.264Z,1015.7
2018-02-09T09:45:05.682Z,1015.69
2018-02-09T09:46:06.378Z,1015.69
2018-02-09T09:47:06.134Z,1015.7
2018-02-09T09:48:06.499Z,1015.68
2018-02-09T09:49:06.204Z,1015.64
2018-02-09T09:50:06.261Z,1015.67
2018-02-09T09:51:06.289Z,1015.62
2018-02-09T09:52:06.495Z,1015.59
2018-02-09T09:53:06.522Z,1015.55
2018-02-09T09:54:06.542Z,1015.62
2018-02-09T09:55:06.596Z,1015.57
2018-02-09T09:56:06.606Z,1015.59
2018-02-09T09:57:06.776Z,1015.58
2018-02-09T09:58:06.790Z,1015.6
2018-02-09T09:59:06.840Z,1015.65
2018-02-09T10:01:06.942Z,1015.68
2018-02-09T10:02:06.919Z,1015.6
2018-02-09T10:03:06.968Z,1015.61
2018-02-09T10:04:06.979Z,1015.66
2018-02-09T10:05:07.447Z,1015.66
2018-02-09T10:06:07.594Z,1015.69
2018-02-09T10:07:07.625Z,1015.65
2018-02-09T10:08:07.655Z,1015.66
2018-02-09T10:09:07.820Z,1015.65
2018-02-09T10:10:07.699Z,1015.65
2018-02-09T10:11:07.762Z,1015.66
2018-02-09T10:12:08.160Z,1015.64
2018-02-09T10:13:08.554Z,1015.57
2018-02-09T10:14:08.579Z,1015.56
2018-02-09T10:15:08.612Z,1015.57
2018-02-09T10:16:08.636Z,1015.57
2018-02-09T10:17:08.662Z,1015.57
2018-02-09T10:18:08.703Z,1015.54
2018-02-09T10:19:08.921Z,1015.51
2018-02-09T10:20:08.947Z,1015.45
2018-02-09T10:21:08.980Z,1015.48
2018-02-09T10:22:09.014Z,1015.48
2018-02-09T10:23:09.145Z,1015.5
2018-02-09T10:24:09.177Z,1015.49
2018-02-09T10:25:09.326Z,1015.49
2018-02-09T10:26:09.370Z,1015.5
2018-02-09T10:27:09.386Z,1015.5
2018-02-09T10:28:09.732Z,1015.5
2018-02-09T10:29:09.886Z,1015.49
2018-02-09T10:30:09.932Z,1015.49
2018-02-09T10:31:09.953Z,1015.47
2018-02-09T10:32:09.972Z,1015.46
2018-02-09T10:33:10.409Z,1015.43
2018-02-09T10:34:10.689Z,1015.49
2018-02-09T10:35:10.722Z,1015.44
2018-02-09T10:36:10.760Z,1015.48
2018-02-09T10:37:10.759Z,1015.49
2018-02-09T10:38:11.054Z,1015.47
2018-02-09T10:39:11.052Z,1015.47
2018-02-09T10:40:11.078Z,1015.4
2018-02-09T10:41:11.110Z,1015.41
2018-02-09T10:42:11.226Z,1015.35
2018-02-09T10:43:11.178Z,1015.34
2018-02-09T10:44:11.531Z,1015.33
2018-02-09T10:45:11.715Z,1015.33
2018-02-09T10:46:11.875Z,1015.34
2018-02-09T10:47:11.854Z,1015.29
2018-02-09T10:48:11.903Z,1015.22
2018-02-09T10:49:12.645Z,1015.32
2018-02-09T10:50:12.815Z,1015.29
2018-02-09T10:51:13.044Z,1015.26
2018-02-09T10:52:12.737Z,1015.24
2018-02-09T10:53:12.653Z,1015.28
2018-02-09T10:54:12.650Z,1015.25
2018-02-09T10:55:12.683Z,1015.27
2018-02-09T10:56:12.730Z,1015.23
2018-02-09T10:57:12.777Z,1015.26
2018-02-09T10:58:13.130Z,1015.25
2018-02-09T10:59:13.153Z,1015.23
2018-02-09T11:01:13.224Z,1015.29
2018-02-09T11:02:13.266Z,1015.26
2018-02-09T11:03:13.272Z,1015.28
2018-02-09T11:04:13.721Z,1015.31
2018-02-09T11:05:13.896Z,1015.26
2018-02-09T11:06:14.032Z,1015.23
2018-02-09T11:07:13.814Z,1015.29
2018-02-09T11:08:14.004Z,1015.23
2018-02-09T11:09:14.417Z,1015.22
2018-02-09T11:10:14.405Z,1015.21
2018-02-09T11:11:14.436Z,1015.21
2018-02-09T11:12:14.482Z,1015.19
2018-02-09T11:13:14.491Z,1015.2
2018-02-09T11:14:14.511Z,1015.24
2018-02-09T11:15:14.690Z,1015.19
2018-02-09T11:16:14.935Z,1015.21
2018-02-09T11:17:15.231Z,1015.14
2018-02-09T11:18:15.223Z,1015.16
2018-02-09T11:19:15.217Z,1015.19
2018-02-09T11:20:15.235Z,1015.16
2018-02-09T11:21:15.272Z,1015.19
2018-02-09T11:22:15.345Z,1015.28
2018-02-09T11:23:15.341Z,1015.25
2018-02-09T11:24:15.380Z,1015.25
2018-02-09T11:25:15.663Z,1015.26
2018-02-09T11:26:15.798Z,1015.2
2018-02-09T11:27:16.672Z,1015.15
2018-02-09T11:28:16.677Z,1015.18
2018-02-09T11:29:16.791Z,1015.1
2018-02-09T11:30:17.287Z,1015.1
2018-02-09T11:31:17.294Z,1015.08
2018-02-09T11:32:17.732Z,1015.07
2018-02-09T11:33:17.855Z,1015.06
2018-02-09T11:34:18.196Z,1015.06
2018-02-09T11:35:18.179Z,1015.03
2018-02-09T11:36:18.289Z,1015.04
2018-02-09T11:37:18.576Z,1015.02
2018-02-09T11:38:18.610Z,1014.99
2018-02-09T11:39:18.806Z,1015.01
2018-02-09T11:40:18.835Z,1015
2018-02-09T11:41:18.973Z,1014.98
2018-02-09T11:42:18.888Z,1014.94
2018-02-09T11:43:18.912Z,1014.97
2018-02-09T11:44:18.949Z,1014.92
2018-02-09T11:45:19.107Z,1014.96
2018-02-09T11:46:19.488Z,1014.91
2018-02-09T11:47:19.912Z,1014.92
2018-02-09T11:48:19.950Z,1014.85
2018-02-09T11:49:20.403Z,1014.87
2018-02-09T11:50:20.677Z,1014.85
2018-02-09T11:51:20.455Z,1014.83
2018-02-09T11:52:20.655Z,1014.82
2018-02-09T11:53:20.598Z,1014.87
2018-02-09T11:54:20.687Z,1014.9
2018-02-09T11:55:20.894Z,1014.85
2018-02-09T11:56:20.860Z,1014.83
2018-02-09T11:57:20.917Z,1014.83
2018-02-09T11:58:20.620Z,1014.78
2018-02-09T11:59:21.147Z,1014.82
2018-02-09T12:00:21.213Z,1014.79
2018-02-09T12:01:21.345Z,1014.77
2018-02-09T12:02:21.220Z,1014.74
2018-02-09T12:03:21.609Z,1014.76
2018-02-09T12:04:21.783Z,1014.74
2018-02-09T12:05:21.655Z,1014.71
2018-02-09T12:06:22.013Z,1014.71
2018-02-09T12:07:21.833Z,1014.72
2018-02-09T12:08:22.024Z,1014.7
2018-02-09T12:09:21.948Z,1014.73
2018-02-09T12:10:21.990Z,1014.67
2018-02-09T12:11:21.858Z,1014.69
2018-02-09T12:12:22.093Z,1014.61